1997 JOSIE (1997032S17055)


On this page: IBTrACS data - Map and Plots - Positions - Intensities - Original source data

Summary

Start Feb 1
End Feb 17
Basin SI
LMI 90 kt
Sources jtwc_sh
reunion
neumann
In WMO? Yes
Previous storm 1997 ILETTA (SI)
Previous in basin 1997 ILETTA (SI)
Concurrent storms 1997 HELINDA (SI)
1997 FREDA (SP)
1997 JOSIE (SI)
1997 GILLIAN (SP)
1997 KARLETTE (SI)
1997 HAROLD (SP)
1997 HSK2797 (SI)
Next in basin 1997 KARLETTE (SI)
Next storm 1997 GILLIAN (SP)

top of page IBTrACS Data: File Access

top of page HURSAT Data: File Access

Image of storm

top of page Plots:

Map of storm track will not appear if FTP is down
Time series of cyclone Maximum Sustained Wind will not appear if FTP is down
Time series of cyclone Minimum Central Pressure will not appear if FTP is down

top of page Track Data:Position

jtwc_sh reunion neumann
Date Lat Lon Lat Lon Lat Lon
1997-02-01 00:00:00 -16.8 55.0 -16.8 55.0
1997-02-01 06:00:00 -16.8 54.7 -16.8 54.7
1997-02-01 12:00:00 -16.7 54.4 -16.7 54.4
1997-02-01 18:00:00 -16.5 54.2 -16.5 54.2
1997-02-02 00:00:00 -16.3 54.0 -16.3 54.0
1997-02-02 06:00:00 -16.0 53.8 -16.0 53.8
1997-02-02 12:00:00 -15.7 53.6 -15.7 53.6
1997-02-02 18:00:00 -15.4 53.3 -15.4 53.3
1997-02-03 00:00:00 -15.1 53.0 -15.1 53.0
1997-02-03 06:00:00 -14.9 52.8 -14.9 52.8
1997-02-03 12:00:00 -14.8 52.6 -14.8 52.6
1997-02-03 18:00:00 -14.7 52.4 -14.7 52.4
1997-02-04 00:00:00 -14.5 52.3 -14.5 52.3
1997-02-04 06:00:00 -14.3 52.2 -14.3 52.2
1997-02-04 12:00:00 -14.1 52.2 -14.1 52.2
1997-02-04 18:00:00 -13.9 52.3 -13.9 52.3
1997-02-05 00:00:00 -13.7 52.4 -13.7 52.4
1997-02-05 06:00:00 -13.5 52.5 -13.6 52.2 -13.5 52.5
1997-02-05 12:00:00 -13.4 52.7 -13.3 52.3 -13.4 52.7
1997-02-05 18:00:00 -13.3 52.9 -13.2 52.3 -13.3 52.9
1997-02-06 00:00:00 -13.2 53.2 -13.1 52.4 -13.2 53.2
1997-02-06 06:00:00 -13.1 53.5 -12.7 52.9 -13.1 53.5
1997-02-06 12:00:00 -13.1 53.8 -12.4 53.5 -13.1 53.8
1997-02-06 18:00:00 -13.2 54.1 -12.9 54.0 -13.2 54.1
1997-02-07 00:00:00 -13.4 54.3 -13.2 54.4 -13.4 54.3
jtwc_sh reunion neumann
1997-02-07 06:00:00 -13.6 54.5 -13.7 54.6 -13.6 54.5
1997-02-07 12:00:00 -13.9 54.6 -14.2 54.7 -13.9 54.6
1997-02-07 18:00:00 -14.2 54.6 -14.5 54.6 -14.2 54.6
1997-02-08 00:00:00 -14.5 54.4 -14.8 54.3 -14.5 54.4
1997-02-08 06:00:00 -14.8 53.8 -14.9 53.4 -14.8 53.8
1997-02-08 12:00:00 -14.7 52.9 -14.7 52.3 -14.7 52.9
1997-02-08 18:00:00 -14.2 51.9 -14.5 51.4 -14.2 51.9
1997-02-09 00:00:00 -13.7 50.8 -14.0 50.5 -13.7 50.8
1997-02-09 06:00:00 -13.2 49.6 -13.6 49.2 -13.2 49.6
1997-02-09 12:00:00 -13.5 48.3 -13.6 47.5 -13.5 48.3
1997-02-09 18:00:00 -14.1 47.0 -14.5 46.6 -14.1 47.0
1997-02-10 00:00:00 -14.9 45.8 -15.1 46.1 -14.9 45.8
1997-02-10 06:00:00 -15.8 44.8 -15.4 45.5 -15.8 44.8
1997-02-10 12:00:00 -16.5 44.0 -16.0 44.5 -16.5 44.0
1997-02-10 18:00:00 -17.2 43.4 -16.9 43.2 -17.2 43.4
1997-02-11 00:00:00 -17.4 42.8 -17.8 42.0 -17.4 42.8
1997-02-11 06:00:00 -17.5 42.3 -17.8 41.7 -17.5 42.3
1997-02-11 12:00:00 -17.8 41.8 -17.8 41.5 -17.8 41.8
1997-02-11 18:00:00 -18.3 41.5 -18.4 41.2 -18.3 41.5
1997-02-12 00:00:00 -18.8 41.2 -19.0 41.2 -18.8 41.2
1997-02-12 06:00:00 -19.3 40.9 -19.2 41.1 -19.3 40.9
1997-02-12 12:00:00 -19.7 40.7 -19.5 40.9 -19.7 40.7
1997-02-12 18:00:00 -20.2 40.7 -20.0 40.6 -20.2 40.7
1997-02-13 00:00:00 -20.7 40.6 -20.6 40.3 -20.7 40.6
jtwc_sh reunion neumann
1997-02-13 06:00:00 -21.5 40.3 -21.4 40.1 -21.5 40.3
1997-02-13 12:00:00 -22.4 40.1 -22.5 40.1 -22.4 40.1
1997-02-13 18:00:00 -23.5 40.2 -23.7 40.1 -23.5 40.2
1997-02-14 00:00:00 -24.5 40.2 -24.6 39.6 -24.5 40.2
1997-02-14 06:00:00 -25.5 40.2 -25.3 39.7 -25.5 40.2
1997-02-14 12:00:00 -26.3 40.4 -26.4 40.2 -26.3 40.4
1997-02-14 18:00:00 -27.0 40.9 -27.0 40.8 -27.0 40.9
1997-02-15 00:00:00 -27.6 41.5 -27.7 41.5 -27.6 41.5
1997-02-15 06:00:00 -28.4 42.0 -28.3 42.2 -28.4 42.0
1997-02-15 12:00:00 -29.2 42.4 -29.4 42.5 -29.2 42.4
1997-02-15 18:00:00 -30.1 42.5 -30.5 42.6 -30.1 42.5
1997-02-16 00:00:00 -31.5 42.5 -31.5 42.5 -31.5 42.5
1997-02-16 06:00:00 -32.8 42.2 -32.7 42.3 -32.8 42.2
1997-02-16 12:00:00 -34.1 42.1 -33.8 42.4 -34.1 42.1
1997-02-16 18:00:00 -35.4 42.5 -35.1 42.7 -35.4 42.5
1997-02-17 00:00:00 -36.6 43.3 -36.5 43.6 -36.6 43.3
1997-02-17 06:00:00 -38.0 44.6 -38.0 45.9 -38.0 44.6

top of pageTrack Data:Intensity

jtwc_sh reunion neumann
Date Wind Pres Wind Pres Wind Pres
1997-02-01 00:00:00 15. 15.
1997-02-01 06:00:00 15. 15.
1997-02-01 12:00:00 15. 15.
1997-02-01 18:00:00 15. 15.
1997-02-02 00:00:00 20. 20.
1997-02-02 06:00:00 20. 20.
1997-02-02 12:00:00 20. 20.
1997-02-02 18:00:00 20. 20.
1997-02-03 00:00:00 20. 20.
1997-02-03 06:00:00 20. 20.
1997-02-03 12:00:00 20. 20.
1997-02-03 18:00:00 20. 20.
1997-02-04 00:00:00 25. 25.
1997-02-04 06:00:00 25. 25.
1997-02-04 12:00:00 25. 25.
1997-02-04 18:00:00 25. 25.
1997-02-05 00:00:00 25. 25.
1997-02-05 06:00:00 25. 25. 1004. 25.
1997-02-05 12:00:00 25. 25. 1002. 25.
1997-02-05 18:00:00 30. 25. 1002. 30.
1997-02-06 00:00:00 30. 25. 1002. 30.
1997-02-06 06:00:00 25. 25. 1002. 25.
1997-02-06 12:00:00 25. 25. 1002. 25.
1997-02-06 18:00:00 25. 25. 1000. 25.
1997-02-07 00:00:00 25. 25. 1000. 25.
jtwc_sh reunion neumann
1997-02-07 06:00:00 25. 25. 1000. 25.
1997-02-07 12:00:00 30. 25. 1000. 30.
1997-02-07 18:00:00 30. 25. 1000. 30.
1997-02-08 00:00:00 30. 25. 1000. 30.
1997-02-08 06:00:00 30. 30. 995. 30.
1997-02-08 12:00:00 30. 30. 995. 30.
1997-02-08 18:00:00 35. 40. 990. 35.
1997-02-09 00:00:00 45. 40. 990. 45.
1997-02-09 06:00:00 50. 50.
1997-02-09 12:00:00 45. 26. 1002. 45.
1997-02-09 18:00:00 45. 26. 1002. 45.
1997-02-10 00:00:00 45. 30. 998. 45.
1997-02-10 06:00:00 45. 30. 998. 45.
1997-02-10 12:00:00 45. 30. 998. 45.
1997-02-10 18:00:00 45. 28. 1002. 45.
1997-02-11 00:00:00 45. 28. 1002. 45.
1997-02-11 06:00:00 45. 35. 992. 45.
1997-02-11 12:00:00 45. 35. 992. 45.
1997-02-11 18:00:00 45. 35. 992. 45.
1997-02-12 00:00:00 45. 35. 992. 45.
1997-02-12 06:00:00 45. 35. 992. 45.
1997-02-12 12:00:00 50. 45. 985. 50.
1997-02-12 18:00:00 60. 45. 985. 60.
1997-02-13 00:00:00 70. 45. 985. 70.
jtwc_sh reunion neumann
1997-02-13 06:00:00 80. 55. 975. 80.
1997-02-13 12:00:00 90. 65. 965. 90.
1997-02-13 18:00:00 90. 75. 950. 90.
1997-02-14 00:00:00 90. 75. 950. 90.
1997-02-14 06:00:00 90. 75. 950. 90.
1997-02-14 12:00:00 90. 70. 955. 90.
1997-02-14 18:00:00 85. 70. 955. 85.
1997-02-15 00:00:00 80. 65. 965. 80.
1997-02-15 06:00:00 75. 60. 970. 75.
1997-02-15 12:00:00 70. 55. 975. 70.
1997-02-15 18:00:00 65. 50. 978. 65.
1997-02-16 00:00:00 60. 45. 982. 60.
1997-02-16 06:00:00 55. 55.
1997-02-16 12:00:00 55. 55.
1997-02-16 18:00:00 50. 50.
1997-02-17 00:00:00 45. 45.
1997-02-17 06:00:00 45. 45.

top of page Links to source data

Source Source file Format
jtwc_sh bsh231997.txt ATCF
reunion WMO-Best-Tracks.txt:Line=17949:josie WMO (old format)
neumann tracks.sh:Storm=1087:JOSIE:BSH231997:JTWC HURDAT